sensor_id;sensor_type;location;lat;lon;timestamp;pressure;altitude;pressure_sealevel;temperature;humidity
13312;BME280;34033;48.672;9.376;2024-02-16T00:00:12;98399.53;;;10.34;81.97
13312;BME280;34033;48.672;9.376;2024-02-16T00:02:39;98393.53;;;10.32;82.37
13312;BME280;34033;48.672;9.376;2024-02-16T00:05:06;98393.56;;;10.35;82.48
13312;BME280;34033;48.672;9.376;2024-02-16T00:07:33;98393.94;;;10.34;82.24
13312;BME280;34033;48.672;9.376;2024-02-16T00:09:58;98400.72;;;10.33;82.59
13312;BME280;34033;48.672;9.376;2024-02-16T00:12:24;98392.34;;;10.33;82.02
13312;BME280;34033;48.672;9.376;2024-02-16T00:14:49;98391.16;;;10.34;82.46
13312;BME280;34033;48.672;9.376;2024-02-16T00:17:14;98380.03;;;10.41;82.93
13312;BME280;34033;48.672;9.376;2024-02-16T00:19:40;98386.81;;;10.43;82.30
13312;BME280;34033;48.672;9.376;2024-02-16T00:22:05;98386.00;;;10.43;82.71
13312;BME280;34033;48.672;9.376;2024-02-16T00:24:33;98381.22;;;10.43;82.22
13312;BME280;34033;48.672;9.376;2024-02-16T00:26:59;98395.19;;;10.40;82.25
13312;BME280;34033;48.672;9.376;2024-02-16T00:29:24;98395.56;;;10.35;82.47
13312;BME280;34033;48.672;9.376;2024-02-16T00:31:50;98400.72;;;10.33;82.22
13312;BME280;34033;48.672;9.376;2024-02-16T00:34:15;98397.53;;;10.31;82.38
13312;BME280;34033;48.672;9.376;2024-02-16T00:36:41;98389.16;;;10.31;82.46
13312;BME280;34033;48.672;9.376;2024-02-16T00:39:06;98390.72;;;10.32;82.41
13312;BME280;34033;48.672;9.376;2024-02-16T00:41:31;98385.56;;;10.30;82.44
13312;BME280;34033;48.672;9.376;2024-02-16T00:43:57;98384.75;;;10.30;82.58
13312;BME280;34033;48.672;9.376;2024-02-16T00:46:23;98383.94;;;10.29;82.69
13312;BME280;34033;48.672;9.376;2024-02-16T00:48:49;98387.94;;;10.32;82.33
13312;BME280;34033;48.672;9.376;2024-02-16T00:51:15;98386.38;;;10.34;82.34
13312;BME280;34033;48.672;9.376;2024-02-16T00:53:41;98381.16;;;10.33;82.37
13312;BME280;34033;48.672;9.376;2024-02-16T00:56:07;98375.94;;;10.31;82.34
13312;BME280;34033;48.672;9.376;2024-02-16T00:58:33;98375.94;;;10.31;82.21
13312;BME280;34033;48.672;9.376;2024-02-16T01:00:59;98376.38;;;10.30;82.27
13312;BME280;34033;48.672;9.376;2024-02-16T01:03:24;98377.16;;;10.30;81.98
13312;BME280;34033;48.672;9.376;2024-02-16T01:05:52;98375.94;;;10.28;82.27
13312;BME280;34033;48.672;9.376;2024-02-16T01:08:17;98371.16;;;10.28;82.52
13312;BME280;34033;48.672;9.376;2024-02-16T01:10:43;98368.38;;;10.28;82.11
13312;BME280;34033;48.672;9.376;2024-02-16T01:13:08;98369.56;;;10.27;82.24
13312;BME280;34033;48.672;9.376;2024-02-16T01:15:33;98377.53;;;10.25;82.51
13312;BME280;34033;48.672;9.376;2024-02-16T01:17:59;98374.34;;;10.27;82.58
13312;BME280;34033;48.672;9.376;2024-02-16T01:20:25;98378.31;;;10.26;82.66
13312;BME280;34033;48.672;9.376;2024-02-16T01:22:51;98378.31;;;10.26;82.69
13312;BME280;34033;48.672;9.376;2024-02-16T01:25:16;98380.72;;;10.24;82.25
13312;BME280;34033;48.672;9.376;2024-02-16T01:27:41;98381.53;;;10.24;82.47
13312;BME280;34033;48.672;9.376;2024-02-16T01:30:07;98377.91;;;10.24;82.69
13312;BME280;34033;48.672;9.376;2024-02-16T01:32:32;98378.72;;;10.24;82.62
13312;BME280;34033;48.672;9.376;2024-02-16T01:34:59;98378.31;;;10.22;82.58
13312;BME280;34033;48.672;9.376;2024-02-16T01:37:25;98377.09;;;10.20;82.70
13312;BME280;34033;48.672;9.376;2024-02-16T01:39:50;98371.09;;;10.18;82.57
13312;BME280;34033;48.672;9.376;2024-02-16T01:42:15;98384.25;;;10.17;82.60
13312;BME280;34033;48.672;9.376;2024-02-16T01:44:41;98393.44;;;10.18;82.44
13312;BME280;34033;48.672;9.376;2024-02-16T01:47:06;98384.22;;;10.14;82.75
13312;BME280;34033;48.672;9.376;2024-02-16T01:49:32;98370.25;;;10.14;82.77
13312;BME280;34033;48.672;9.376;2024-02-16T01:51:58;98380.66;;;10.17;82.76
13312;BME280;34033;48.672;9.376;2024-02-16T01:54:23;98375.88;;;10.17;82.45
13312;BME280;34033;48.672;9.376;2024-02-16T01:56:49;98377.09;;;10.20;82.81
13312;BME280;34033;48.672;9.376;2024-02-16T01:59:16;98376.75;;;10.25;82.81
13312;BME280;34033;48.672;9.376;2024-02-16T02:01:41;98373.91;;;10.21;82.94
13312;BME280;34033;48.672;9.376;2024-02-16T02:04:07;98371.09;;;10.21;82.57
13312;BME280;34033;48.672;9.376;2024-02-16T02:06:32;98381.88;;;10.19;82.94
13312;BME280;34033;48.672;9.376;2024-02-16T02:08:57;98376.69;;;10.18;82.79
13312;BME280;34033;48.672;9.376;2024-02-16T02:11:23;98371.91;;;10.22;83.00
13312;BME280;34033;48.672;9.376;2024-02-16T02:13:48;98373.53;;;10.23;82.89
13312;BME280;34033;48.672;9.376;2024-02-16T02:16:15;98364.31;;;10.19;83.07
13312;BME280;34033;48.672;9.376;2024-02-16T02:18:40;98373.03;;;10.14;83.54
13312;BME280;34033;48.672;9.376;2024-02-16T02:21:05;98375.41;;;10.15;83.14
13312;BME280;34033;48.672;9.376;2024-02-16T02:23:31;98366.69;;;10.17;83.15
13312;BME280;34033;48.672;9.376;2024-02-16T02:25:56;98367.56;;;10.24;83.67
13312;BME280;34033;48.672;9.376;2024-02-16T02:28:21;98362.34;;;10.23;83.52
13312;BME280;34033;48.672;9.376;2024-02-16T02:30:49;98360.75;;;10.22;83.05
13312;BME280;34033;48.672;9.376;2024-02-16T02:33:14;98352.75;;;10.20;83.04
13312;BME280;34033;48.672;9.376;2024-02-16T02:35:39;98350.38;;;10.22;83.05
13312;BME280;34033;48.672;9.376;2024-02-16T02:38:05;98348.38;;;10.23;83.06
13312;BME280;34033;48.672;9.376;2024-02-16T02:40:31;98351.16;;;10.23;82.90
13312;BME280;34033;48.672;9.376;2024-02-16T02:42:57;98346.38;;;10.23;82.94
13312;BME280;34033;48.672;9.376;2024-02-16T02:45:22;98342.78;;;10.23;82.69
13312;BME280;34033;48.672;9.376;2024-02-16T02:47:48;98344.78;;;10.22;82.81
13312;BME280;34033;48.672;9.376;2024-02-16T02:50:13;98335.19;;;10.20;82.96
13312;BME280;34033;48.672;9.376;2024-02-16T02:52:39;98344.78;;;10.19;82.79
13312;BME280;34033;48.672;9.376;2024-02-16T02:55:04;98335.97;;;10.17;82.99
13312;BME280;34033;48.672;9.376;2024-02-16T02:57:30;98343.16;;;10.18;83.18
13312;BME280;34033;48.672;9.376;2024-02-16T03:00:05;98346.69;;;10.15;83.19
13312;BME280;34033;48.672;9.376;2024-02-16T03:02:32;98336.72;;;10.14;83.21
13312;BME280;34033;48.672;9.376;2024-02-16T03:04:57;98337.19;;;10.19;83.42
13312;BME280;34033;48.672;9.376;2024-02-16T03:07:23;98338.81;;;10.24;83.37
13312;BME280;34033;48.672;9.376;2024-02-16T03:09:48;98338.38;;;10.22;83.19
13312;BME280;34033;48.672;9.376;2024-02-16T03:12:13;98338.78;;;10.20;82.91
13312;BME280;34033;48.672;9.376;2024-02-16T03:14:44;98334.75;;;10.14;83.24
13312;BME280;34033;48.672;9.376;2024-02-16T03:17:10;98337.50;;;10.11;83.95
13312;BME280;34033;48.672;9.376;2024-02-16T03:19:35;98340.28;;;10.07;84.13
13312;BME280;34033;48.672;9.376;2024-02-16T03:22:01;98340.28;;;10.07;84.32
13312;BME280;34033;48.672;9.376;2024-02-16T03:24:26;98340.66;;;10.05;84.58
13312;BME280;34033;48.672;9.376;2024-02-16T03:26:52;98342.25;;;10.03;84.92
13312;BME280;34033;48.672;9.376;2024-02-16T03:29:17;98339.91;;;10.12;85.40
13312;BME280;34033;48.672;9.376;2024-02-16T03:31:42;98343.06;;;10.11;85.51
13312;BME280;34033;48.672;9.376;2024-02-16T03:34:08;98336.31;;;10.15;85.37
13312;BME280;34033;48.672;9.376;2024-02-16T03:36:33;98333.97;;;10.17;85.13
13312;BME280;34033;48.672;9.376;2024-02-16T03:38:59;98338.81;;;10.24;85.25
13312;BME280;34033;48.672;9.376;2024-02-16T03:41:24;98346.00;;;10.25;84.83
13312;BME280;34033;48.672;9.376;2024-02-16T03:43:50;98344.41;;;10.24;84.52
13312;BME280;34033;48.672;9.376;2024-02-16T03:46:16;98353.16;;;10.22;84.17
13312;BME280;34033;48.672;9.376;2024-02-16T03:48:41;98358.31;;;10.20;84.68
13312;BME280;34033;48.672;9.376;2024-02-16T03:51:07;98354.38;;;10.25;84.98
13312;BME280;34033;48.672;9.376;2024-02-16T03:53:33;98354.41;;;10.28;85.18
13312;BME280;34033;48.672;9.376;2024-02-16T03:55:59;98361.59;;;10.33;85.40
13312;BME280;34033;48.672;9.376;2024-02-16T03:58:24;98360.78;;;10.29;85.47
13312;BME280;34033;48.672;9.376;2024-02-16T04:00:50;98356.00;;;10.33;85.32
13312;BME280;34033;48.672;9.376;2024-02-16T04:03:16;98354.44;;;10.35;85.26
13312;BME280;34033;48.672;9.376;2024-02-16T04:05:42;98354.81;;;10.34;85.15
13312;BME280;34033;48.672;9.376;2024-02-16T04:08:07;98363.63;;;10.36;84.90
13312;BME280;34033;48.672;9.376;2024-02-16T04:10:33;98370.41;;;10.42;84.70
13312;BME280;34033;48.672;9.376;2024-02-16T04:12:59;98366.53;;;10.61;87.47
13312;BME280;34033;48.672;9.376;2024-02-16T04:15:24;98360.59;;;10.69;83.83
13312;BME280;34033;48.672;9.376;2024-02-16T04:17:50;98371.41;;;10.74;82.66
13312;BME280;34033;48.672;9.376;2024-02-16T04:20:15;98364.59;;;10.68;82.46
13312;BME280;34033;48.672;9.376;2024-02-16T04:22:41;98356.28;;;10.90;83.12
13312;BME280;34033;48.672;9.376;2024-02-16T04:25:07;98362.69;;;11.01;82.26
13312;BME280;34033;48.672;9.376;2024-02-16T04:27:34;98363.91;;;11.07;80.32
13312;BME280;34033;48.672;9.376;2024-02-16T04:30:00;98361.94;;;11.18;80.32
13312;BME280;34033;48.672;9.376;2024-02-16T04:32:25;98363.53;;;11.15;79.80
13312;BME280;34033;48.672;9.376;2024-02-16T04:34:51;98357.53;;;11.20;79.69
13312;BME280;34033;48.672;9.376;2024-02-16T04:37:21;98357.94;;;11.26;79.21
13312;BME280;34033;48.672;9.376;2024-02-16T04:39:47;98366.34;;;11.22;78.69
13312;BME280;34033;48.672;9.376;2024-02-16T04:42:12;98372.75;;;11.26;79.11
13312;BME280;34033;48.672;9.376;2024-02-16T04:44:38;98371.94;;;11.19;78.88
13312;BME280;34033;48.672;9.376;2024-02-16T04:47:04;98375.91;;;11.14;78.47
13312;BME280;34033;48.672;9.376;2024-02-16T04:49:29;98375.94;;;11.18;78.19
13312;BME280;34033;48.672;9.376;2024-02-16T04:51:55;98372.34;;;11.28;78.67
13312;BME280;34033;48.672;9.376;2024-02-16T04:54:20;98371.97;;;11.29;77.90
13312;BME280;34033;48.672;9.376;2024-02-16T04:56:45;98373.16;;;11.28;77.50
13312;BME280;34033;48.672;9.376;2024-02-16T04:59:11;98365.53;;;11.25;77.83
13312;BME280;34033;48.672;9.376;2024-02-16T05:01:36;98372.75;;;11.23;78.52
13312;BME280;34033;48.672;9.376;2024-02-16T05:04:02;98370.72;;;11.13;78.32
13312;BME280;34033;48.672;9.376;2024-02-16T05:06:27;98373.09;;;11.04;78.37
13312;BME280;34033;48.672;9.376;2024-02-16T05:08:53;98370.69;;;11.02;78.86
13312;BME280;34033;48.672;9.376;2024-02-16T05:11:19;98365.91;;;11.10;79.04
13312;BME280;34033;48.672;9.376;2024-02-16T05:13:44;98367.50;;;11.11;78.98
13312;BME280;34033;48.672;9.376;2024-02-16T05:16:10;98376.72;;;11.08;78.93
13312;BME280;34033;48.672;9.376;2024-02-16T05:18:36;98379.88;;;11.03;79.24
13312;BME280;34033;48.672;9.376;2024-02-16T05:21:02;98375.84;;;10.90;79.67
13312;BME280;34033;48.672;9.376;2024-02-16T05:23:27;98369.41;;;10.82;80.01
13312;BME280;34033;48.672;9.376;2024-02-16T05:25:53;98375.84;;;10.86;80.51
13312;BME280;34033;48.672;9.376;2024-02-16T05:28:19;98377.84;;;10.93;80.11
13312;BME280;34033;48.672;9.376;2024-02-16T05:30:45;98379.84;;;10.88;80.13
13312;BME280;34033;48.672;9.376;2024-02-16T05:33:10;98362.25;;;10.92;80.44
13312;BME280;34033;48.672;9.376;2024-02-16T05:35:36;98381.84;;;10.95;80.69
13312;BME280;34033;48.672;9.376;2024-02-16T05:38:05;98381.03;;;10.87;80.36
13312;BME280;34033;48.672;9.376;2024-02-16T05:40:35;98387.75;;;10.72;80.74
13312;BME280;34033;48.672;9.376;2024-02-16T05:43:18;98380.13;;;10.62;81.76
13312;BME280;34033;48.672;9.376;2024-02-16T05:45:44;98380.88;;;10.56;82.49
13312;BME280;34033;48.672;9.376;2024-02-16T05:48:09;98390.03;;;10.49;82.91
13312;BME280;34033;48.672;9.376;2024-02-16T05:50:35;98387.19;;;10.38;83.44
13312;BME280;34033;48.672;9.376;2024-02-16T05:53:01;98390.41;;;10.44;83.87
13312;BME280;34033;48.672;9.376;2024-02-16T05:55:26;98398.38;;;10.42;84.20
13312;BME280;34033;48.672;9.376;2024-02-16T05:57:51;98394.00;;;10.41;84.28
13312;BME280;34033;48.672;9.376;2024-02-16T06:00:17;98397.59;;;10.45;84.17
13312;BME280;34033;48.672;9.376;2024-02-16T06:02:46;98392.03;;;10.49;83.60
13312;BME280;34033;48.672;9.376;2024-02-16T06:05:12;98404.88;;;10.60;83.51
13312;BME280;34033;48.672;9.376;2024-02-16T06:07:37;98401.69;;;10.58;83.56
13312;BME280;34033;48.672;9.376;2024-02-16T06:10:06;98397.28;;;10.61;83.47
13312;BME280;34033;48.672;9.376;2024-02-16T06:12:38;98398.50;;;10.63;82.97
13312;BME280;34033;48.672;9.376;2024-02-16T06:15:05;98404.91;;;10.67;82.98
13312;BME280;34033;48.672;9.376;2024-02-16T06:17:30;98404.13;;;10.70;83.11
13312;BME280;34033;48.672;9.376;2024-02-16T06:19:55;98411.69;;;10.66;82.95
13312;BME280;34033;48.672;9.376;2024-02-16T06:22:21;98410.47;;;10.60;83.10
13312;BME280;34033;48.672;9.376;2024-02-16T06:24:46;98425.63;;;10.59;83.04
13312;BME280;34033;48.672;9.376;2024-02-16T06:27:11;98428.03;;;10.64;83.38
13312;BME280;34033;48.672;9.376;2024-02-16T06:29:37;98424.53;;;10.74;82.97
13312;BME280;34033;48.672;9.376;2024-02-16T06:32:02;98429.69;;;10.72;82.85
13312;BME280;34033;48.672;9.376;2024-02-16T06:34:28;98427.31;;;10.74;82.40
13312;BME280;34033;48.672;9.376;2024-02-16T06:36:53;98434.91;;;10.77;82.51
13312;BME280;34033;48.672;9.376;2024-02-16T06:39:19;98439.31;;;10.78;81.88
13312;BME280;34033;48.672;9.376;2024-02-16T06:41:45;98437.31;;;10.79;82.42
13312;BME280;34033;48.672;9.376;2024-02-16T06:44:15;98440.13;;;10.79;82.09
13312;BME280;34033;48.672;9.376;2024-02-16T06:46:41;98451.28;;;10.75;82.36
13312;BME280;34033;48.672;9.376;2024-02-16T06:49:07;98451.69;;;10.74;82.34
13312;BME280;34033;48.672;9.376;2024-02-16T06:51:32;98453.28;;;10.75;82.22
13312;BME280;34033;48.672;9.376;2024-02-16T06:53:58;98454.47;;;10.77;81.88
13312;BME280;34033;48.672;9.376;2024-02-16T06:56:23;98443.34;;;10.84;82.09
13312;BME280;34033;48.672;9.376;2024-02-16T06:58:49;98458.47;;;10.76;82.50
13312;BME280;34033;48.672;9.376;2024-02-16T07:01:15;98456.84;;;10.75;82.51
13312;BME280;34033;48.672;9.376;2024-02-16T07:03:41;98462.97;;;10.99;81.93
13312;BME280;34033;48.672;9.376;2024-02-16T07:06:08;98466.25;;;11.15;80.40
13312;BME280;34033;48.672;9.376;2024-02-16T07:08:38;98469.47;;;11.20;80.31
13312;BME280;34033;48.672;9.376;2024-02-16T07:11:04;98466.69;;;11.31;79.66
13312;BME280;34033;48.672;9.376;2024-02-16T07:13:31;98469.53;;;11.38;78.96
13312;BME280;34033;48.672;9.376;2024-02-16T07:15:56;98477.94;;;11.42;78.75
13312;BME280;34033;48.672;9.376;2024-02-16T07:18:22;98479.53;;;11.36;79.21
13312;BME280;34033;48.672;9.376;2024-02-16T07:20:47;98471.53;;;11.34;79.53
13312;BME280;34033;48.672;9.376;2024-02-16T07:23:13;98483.50;;;11.31;79.51
13312;BME280;34033;48.672;9.376;2024-02-16T07:25:40;98480.69;;;11.31;79.62
13312;BME280;34033;48.672;9.376;2024-02-16T07:28:06;98481.53;;;11.35;79.58
13312;BME280;34033;48.672;9.376;2024-02-16T07:30:31;98476.31;;;11.30;79.93
13312;BME280;34033;48.672;9.376;2024-02-16T07:32:58;98472.28;;;11.31;79.87
13312;BME280;34033;48.672;9.376;2024-02-16T07:35:23;98479.50;;;11.32;80.11
13312;BME280;34033;48.672;9.376;2024-02-16T07:37:50;98486.72;;;11.33;79.54
13312;BME280;34033;48.672;9.376;2024-02-16T07:40:19;98483.50;;;11.31;80.20
13312;BME280;34033;48.672;9.376;2024-02-16T07:42:45;98485.13;;;11.39;79.65
13312;BME280;34033;48.672;9.376;2024-02-16T07:45:11;98484.34;;;11.42;79.70
13312;BME280;34033;48.672;9.376;2024-02-16T07:47:37;98484.72;;;11.37;79.90
13312;BME280;34033;48.672;9.376;2024-02-16T07:50:03;98486.72;;;11.37;80.05
13312;BME280;34033;48.672;9.376;2024-02-16T07:52:28;98483.50;;;11.31;80.09
13312;BME280;34033;48.672;9.376;2024-02-16T07:54:54;98489.13;;;11.35;79.94
13312;BME280;34033;48.672;9.376;2024-02-16T07:57:19;98493.16;;;11.41;79.45
13312;BME280;34033;48.672;9.376;2024-02-16T07:59:45;98486.78;;;11.54;79.06
13312;BME280;34033;48.672;9.376;2024-02-16T08:02:10;98487.59;;;11.62;79.49
13312;BME280;34033;48.672;9.376;2024-02-16T08:04:40;98494.81;;;11.66;78.71
13312;BME280;34033;48.672;9.376;2024-02-16T08:07:06;98496.81;;;11.66;78.78
13312;BME280;34033;48.672;9.376;2024-02-16T08:09:31;98492.44;;;11.76;78.20
13312;BME280;34033;48.672;9.376;2024-02-16T08:11:57;98490.88;;;11.78;78.38
13312;BME280;34033;48.672;9.376;2024-02-16T08:14:22;98500.47;;;11.74;78.27
13312;BME280;34033;48.672;9.376;2024-02-16T08:16:47;98486.00;;;11.71;77.12
13312;BME280;34033;48.672;9.376;2024-02-16T08:19:13;98498.03;;;11.72;77.77
13312;BME280;34033;48.672;9.376;2024-02-16T08:21:39;98494.81;;;11.66;77.72
13312;BME280;34033;48.672;9.376;2024-02-16T08:24:05;98494.41;;;11.64;77.59
13312;BME280;34033;48.672;9.376;2024-02-16T08:26:30;98502.00;;;11.67;77.53
13312;BME280;34033;48.672;9.376;2024-02-16T08:28:56;98497.25;;;11.75;77.99
13312;BME280;34033;48.672;9.376;2024-02-16T08:31:21;98495.28;;;11.83;77.20
13312;BME280;34033;48.672;9.376;2024-02-16T08:33:47;98490.06;;;11.92;77.08
13312;BME280;34033;48.672;9.376;2024-02-16T08:36:13;98498.50;;;11.99;76.61
13312;BME280;34033;48.672;9.376;2024-02-16T08:38:39;98487.69;;;12.08;75.98
13312;BME280;34033;48.672;9.376;2024-02-16T08:41:04;98497.72;;;12.16;75.83
13312;BME280;34033;48.672;9.376;2024-02-16T08:43:30;98497.31;;;12.21;75.41
13312;BME280;34033;48.672;9.376;2024-02-16T08:45:55;98499.72;;;12.23;75.61
13312;BME280;34033;48.672;9.376;2024-02-16T08:48:21;98505.31;;;12.30;75.12
13312;BME280;34033;48.672;9.376;2024-02-16T08:50:47;98509.31;;;12.15;73.13
13312;BME280;34033;48.672;9.376;2024-02-16T08:53:13;98509.28;;;11.97;72.77
13312;BME280;34033;48.672;9.376;2024-02-16T08:55:39;98511.69;;;12.02;72.96
13312;BME280;34033;48.672;9.376;2024-02-16T08:58:07;98510.91;;;12.16;74.12
13312;BME280;34033;48.672;9.376;2024-02-16T09:00:34;98499.69;;;12.30;73.32
13312;BME280;34033;48.672;9.376;2024-02-16T09:02:59;98498.50;;;12.41;72.58
13312;BME280;34033;48.672;9.376;2024-02-16T09:05:27;98501.72;;;12.50;72.32
13312;BME280;34033;48.672;9.376;2024-02-16T09:07:52;98506.13;;;12.55;71.19
13312;BME280;34033;48.672;9.376;2024-02-16T09:10:18;98509.31;;;12.57;71.52
13312;BME280;34033;48.672;9.376;2024-02-16T09:12:43;98502.09;;;12.60;71.59
13312;BME280;34033;48.672;9.376;2024-02-16T09:15:09;98504.50;;;12.65;70.51
13312;BME280;34033;48.672;9.376;2024-02-16T09:17:34;98499.66;;;12.76;70.01
13312;BME280;34033;48.672;9.376;2024-02-16T09:19:59;98493.66;;;12.81;68.17
13312;BME280;34033;48.672;9.376;2024-02-16T09:22:25;98505.25;;;12.86;68.08
13312;BME280;34033;48.672;9.376;2024-02-16T09:24:50;98503.25;;;12.94;67.81
13312;BME280;34033;48.672;9.376;2024-02-16T09:27:15;98510.88;;;12.93;66.61
13312;BME280;34033;48.672;9.376;2024-02-16T09:29:41;98509.25;;;13.00;66.85
13312;BME280;34033;48.672;9.376;2024-02-16T09:32:06;98516.44;;;12.97;65.53
13312;BME280;34033;48.672;9.376;2024-02-16T09:34:32;98508.44;;;12.99;66.19
13312;BME280;34033;48.672;9.376;2024-02-16T09:36:57;98505.59;;;13.10;65.12
13312;BME280;34033;48.672;9.376;2024-02-16T09:39:22;98508.81;;;13.15;65.31
13312;BME280;34033;48.672;9.376;2024-02-16T09:41:51;98509.16;;;13.39;65.37
13312;BME280;34033;48.672;9.376;2024-02-16T09:44:17;98516.25;;;13.61;64.87
13312;BME280;34033;48.672;9.376;2024-02-16T09:46:44;98511.75;;;13.77;64.42
13312;BME280;34033;48.672;9.376;2024-02-16T09:49:10;98510.47;;;13.93;64.60
13312;BME280;34033;48.672;9.376;2024-02-16T09:51:36;98518.41;;;14.05;63.56
13312;BME280;34033;48.672;9.376;2024-02-16T09:54:02;98518.38;;;14.08;62.75
13312;BME280;34033;48.672;9.376;2024-02-16T09:56:28;98520.69;;;14.24;62.66
13312;BME280;34033;48.672;9.376;2024-02-16T09:58:54;98511.25;;;14.52;62.56
13312;BME280;34033;48.672;9.376;2024-02-16T10:01:22;98523.94;;;14.71;60.43
13312;BME280;34033;48.672;9.376;2024-02-16T10:03:49;98527.94;;;14.73;59.78
13312;BME280;34033;48.672;9.376;2024-02-16T10:06:15;98530.38;;;14.71;59.79
13312;BME280;34033;48.672;9.376;2024-02-16T10:08:51;98532.00;;;14.69;60.48
13312;BME280;34033;48.672;9.376;2024-02-16T10:11:18;98533.09;;;14.78;60.68
13312;BME280;34033;48.672;9.376;2024-02-16T10:14:03;98549.81;;;14.99;60.39
13312;BME280;34033;48.672;9.376;2024-02-16T10:16:30;98542.41;;;15.13;59.45
13312;BME280;34033;48.672;9.376;2024-02-16T10:18:57;98548.63;;;15.34;58.30
13312;BME280;34033;48.672;9.376;2024-02-16T10:21:29;98542.06;;;15.44;57.12
13312;BME280;34033;48.672;9.376;2024-02-16T10:26:31;98548.91;;;15.77;56.61
13312;BME280;34033;48.672;9.376;2024-02-16T10:28:57;98548.81;;;15.84;56.11
13312;BME280;34033;48.672;9.376;2024-02-16T10:31:26;98547.78;;;16.02;56.23
13312;BME280;34033;48.672;9.376;2024-02-16T10:33:59;98551.56;;;16.18;55.71
13312;BME280;34033;48.672;9.376;2024-02-16T10:36:25;98545.06;;;16.21;54.32
13312;BME280;34033;48.672;9.376;2024-02-16T10:38:54;98549.47;;;16.26;54.32
13312;BME280;34033;48.672;9.376;2024-02-16T10:41:26;98541.13;;;16.15;53.52
13312;BME280;34033;48.672;9.376;2024-02-16T10:43:53;98553.38;;;16.05;52.97
13312;BME280;34033;48.672;9.376;2024-02-16T10:46:19;98552.47;;;16.12;53.97
13312;BME280;34033;48.672;9.376;2024-02-16T10:48:45;98548.69;;;16.22;53.36
13312;BME280;34033;48.672;9.376;2024-02-16T10:51:11;98558.19;;;16.08;53.12
13312;BME280;34033;48.672;9.376;2024-02-16T10:53:38;98553.66;;;16.14;53.48
13312;BME280;34033;48.672;9.376;2024-02-16T10:56:07;98552.22;;;16.30;53.28
13312;BME280;34033;48.672;9.376;2024-02-16T10:58:32;98550.03;;;16.41;53.03
13312;BME280;34033;48.672;9.376;2024-02-16T11:01:08;98551.56;;;16.45;53.39
13312;BME280;34033;48.672;9.376;2024-02-16T11:03:33;98548.00;;;16.41;53.25
13312;BME280;34033;48.672;9.376;2024-02-16T11:05:58;98553.66;;;16.41;53.36
13312;BME280;34033;48.672;9.376;2024-02-16T11:08:24;98552.91;;;16.37;53.19
13312;BME280;34033;48.672;9.376;2024-02-16T11:11:00;98546.50;;;16.33;53.58
13312;BME280;34033;48.672;9.376;2024-02-16T11:13:28;98549.28;;;16.37;53.47
13312;BME280;34033;48.672;9.376;2024-02-16T11:18:24;98551.16;;;16.47;53.49
13312;BME280;34033;48.672;9.376;2024-02-16T11:20:50;98555.13;;;16.49;53.24
13312;BME280;34033;48.672;9.376;2024-02-16T11:23:15;98550.16;;;16.57;53.46
13312;BME280;34033;48.672;9.376;2024-02-16T11:25:49;98541.88;;;16.73;53.42
13312;BME280;34033;48.672;9.376;2024-02-16T11:28:16;98546.53;;;16.83;52.92
13312;BME280;34033;48.672;9.376;2024-02-16T11:30:42;98535.00;;;16.97;52.92
13312;BME280;34033;48.672;9.376;2024-02-16T11:33:11;98533.19;;;17.07;52.50
13312;BME280;34033;48.672;9.376;2024-02-16T11:35:36;98532.06;;;17.24;51.99
13312;BME280;34033;48.672;9.376;2024-02-16T11:38:02;98535.19;;;17.30;51.74
13312;BME280;34033;48.672;9.376;2024-02-16T11:40:27;98535.47;;;17.55;54.50
13312;BME280;34033;48.672;9.376;2024-02-16T11:42:59;98537.38;;;17.81;51.29
13312;BME280;34033;48.672;9.376;2024-02-16T11:45:25;98535.91;;;17.93;50.98
13312;BME280;34033;48.672;9.376;2024-02-16T11:47:51;98529.06;;;18.10;51.25
13312;BME280;34033;48.672;9.376;2024-02-16T11:50:17;98534.03;;;18.22;49.52
13312;BME280;34033;48.672;9.376;2024-02-16T11:52:43;98533.94;;;18.26;49.57
13312;BME280;34033;48.672;9.376;2024-02-16T11:55:09;98529.88;;;18.27;49.56
13312;BME280;34033;48.672;9.376;2024-02-16T11:57:36;98540.41;;;18.26;50.00
13312;BME280;34033;48.672;9.376;2024-02-16T12:00:03;98530.53;;;18.34;50.15
13312;BME280;34033;48.672;9.376;2024-02-16T12:02:34;98533.63;;;18.40;49.68
13312;BME280;34033;48.672;9.376;2024-02-16T12:05:00;98533.53;;;18.27;48.12
13312;BME280;34033;48.672;9.376;2024-02-16T12:07:26;98540.25;;;18.33;48.48
13312;BME280;34033;48.672;9.376;2024-02-16T12:09:58;98541.38;;;18.36;48.51
13312;BME280;34033;48.672;9.376;2024-02-16T12:12:25;98529.63;;;18.38;52.14
13312;BME280;34033;48.672;9.376;2024-02-16T12:14:50;98528.00;;;18.56;53.02
13312;BME280;34033;48.672;9.376;2024-02-16T12:17:15;98531.63;;;18.57;49.13
13312;BME280;34033;48.672;9.376;2024-02-16T12:19:47;98530.41;;;18.58;50.88
13312;BME280;34033;48.672;9.376;2024-02-16T12:22:20;98522.78;;;18.55;50.12
13312;BME280;34033;48.672;9.376;2024-02-16T12:24:46;98525.72;;;18.67;49.48
13312;BME280;34033;48.672;9.376;2024-02-16T12:27:12;98530.66;;;18.80;49.63
13312;BME280;34033;48.672;9.376;2024-02-16T12:29:41;98535.59;;;18.92;49.38
13312;BME280;34033;48.672;9.376;2024-02-16T12:32:06;98533.94;;;18.62;47.23
13312;BME280;34033;48.672;9.376;2024-02-16T12:34:35;98542.59;;;18.71;47.39
13312;BME280;34033;48.672;9.376;2024-02-16T12:37:00;98546.88;;;18.63;47.06
13312;BME280;34033;48.672;9.376;2024-02-16T12:39:25;98536.50;;;18.56;47.92
13312;BME280;34033;48.672;9.376;2024-02-16T12:41:51;98543.41;;;18.55;48.04
13312;BME280;34033;48.672;9.376;2024-02-16T12:44:16;98547.53;;;18.51;47.81
13312;BME280;34033;48.672;9.376;2024-02-16T12:46:42;98547.16;;;18.49;48.30
13312;BME280;34033;48.672;9.376;2024-02-16T12:49:08;98539.19;;;18.44;47.83
13312;BME280;34033;48.672;9.376;2024-02-16T12:51:33;98549.72;;;18.43;47.87
13312;BME280;34033;48.672;9.376;2024-02-16T12:54:00;98546.50;;;18.25;46.91
13312;BME280;34033;48.672;9.376;2024-02-16T12:56:29;98540.34;;;18.30;47.35
13312;BME280;34033;48.672;9.376;2024-02-16T12:58:54;98544.03;;;18.27;48.08